createdAt,value
2022-08-16T00:01:04.350Z,99.90
2022-08-16T00:03:37.830Z,99.90
2022-08-16T00:06:05.123Z,99.90
2022-08-16T00:08:36.913Z,99.90
2022-08-16T00:11:06.994Z,99.90
2022-08-16T00:13:41.700Z,99.90
2022-08-16T00:17:06.292Z,99.90
2022-08-16T00:18:57.644Z,99.90
2022-08-16T00:21:26.170Z,99.90
2022-08-16T00:23:56.692Z,99.90
2022-08-16T00:26:34.561Z,99.90
2022-08-16T00:29:05.774Z,99.90
2022-08-16T00:32:00.041Z,99.90
2022-08-16T00:34:43.570Z,99.90
2022-08-16T00:37:10.443Z,99.90
2022-08-16T00:39:37.393Z,99.90
2022-08-16T00:42:10.292Z,99.90
2022-08-16T00:44:39.694Z,99.90
2022-08-16T00:47:16.339Z,99.90
2022-08-16T00:49:44.868Z,99.90
2022-08-16T00:52:29.610Z,99.90
2022-08-16T00:54:58.780Z,99.90
2022-08-16T00:57:59.146Z,99.90
2022-08-16T01:00:19.761Z,99.90
2022-08-16T01:02:49.003Z,99.90
2022-08-16T01:05:16.469Z,99.90
2022-08-16T01:07:50.718Z,99.90
2022-08-16T01:10:18.735Z,99.90
2022-08-16T01:12:45.818Z,99.90
2022-08-16T01:15:13.316Z,99.90
2022-08-16T01:17:42.658Z,99.90
2022-08-16T01:20:23.769Z,99.90
2022-08-16T01:23:18.993Z,99.90
2022-08-16T01:26:00.185Z,99.90
2022-08-16T01:28:38.995Z,99.90
2022-08-16T01:31:14.965Z,99.90
2022-08-16T01:33:44.685Z,99.90
2022-08-16T01:36:13.120Z,99.90
2022-08-16T01:38:47.062Z,99.90
2022-08-16T01:41:22.323Z,99.90
2022-08-16T01:43:54.075Z,99.90
2022-08-16T01:46:45.835Z,99.90
2022-08-16T01:49:25.135Z,99.90
2022-08-16T01:52:29.327Z,99.90
2022-08-16T01:54:59.391Z,99.90
2022-08-16T01:57:27.797Z,99.90
2022-08-16T01:59:59.291Z,99.90
2022-08-16T02:02:28.612Z,99.90
2022-08-16T02:05:00.178Z,99.90
2022-08-16T02:07:27.387Z,99.90
2022-08-16T02:09:56.904Z,99.90
2022-08-16T02:12:49.483Z,99.90
2022-08-16T02:15:17.880Z,99.90
2022-08-16T02:17:52.841Z,99.90
2022-08-16T02:20:19.853Z,99.90
2022-08-16T02:22:55.150Z,99.90
2022-08-16T02:25:23.074Z,99.90
2022-08-16T02:27:51.497Z,99.90
2022-08-16T02:30:36.923Z,99.90
2022-08-16T02:33:10.951Z,99.90
2022-08-16T02:35:54.105Z,99.90
2022-08-16T02:38:23.282Z,99.90
2022-08-16T02:40:51.582Z,99.90
2022-08-16T02:43:26.676Z,99.90
2022-08-16T02:45:54.738Z,99.90
2022-08-16T02:48:28.884Z,99.90
2022-08-16T02:51:10.177Z,99.90
2022-08-16T02:53:44.712Z,99.90
2022-08-16T02:56:15.950Z,99.90
2022-08-16T02:58:45.296Z,99.90
2022-08-16T03:01:24.750Z,99.90
2022-08-16T03:04:29.985Z,99.90
2022-08-16T03:06:48.956Z,99.90
2022-08-16T03:09:18.131Z,99.90
2022-08-16T03:11:47.520Z,99.90
2022-08-16T03:14:21.361Z,99.90
2022-08-16T03:16:59.876Z,99.90
2022-08-16T03:19:48.608Z,99.90
2022-08-16T03:22:27.780Z,99.90
2022-08-16T03:24:58.307Z,99.90
2022-08-16T03:27:31.209Z,99.90
2022-08-16T03:30:17.677Z,99.90
2022-08-16T03:32:47.170Z,99.90
2022-08-16T03:35:17.967Z,99.90
2022-08-16T03:38:01.673Z,99.90
2022-08-16T03:40:31.723Z,99.90
2022-08-16T03:43:20.303Z,99.90
2022-08-16T03:45:48.167Z,99.90
2022-08-16T03:48:18.119Z,99.90
2022-08-16T03:51:00.056Z,99.90
2022-08-16T03:53:37.636Z,99.90
2022-08-16T03:56:07.952Z,99.90
2022-08-16T03:58:45.717Z,99.90
2022-08-16T04:01:15.598Z,99.90
2022-08-16T04:03:43.145Z,99.90
2022-08-16T04:06:11.238Z,99.90
2022-08-16T04:08:39.536Z,99.90
2022-08-16T04:11:06.911Z,99.90
2022-08-16T04:14:00.469Z,99.90
2022-08-16T04:16:27.545Z,99.90
2022-08-16T04:19:02.589Z,99.90
2022-08-16T04:21:45.694Z,99.90
2022-08-16T04:24:13.995Z,99.90
2022-08-16T04:26:45.793Z,99.90
2022-08-16T04:29:18.280Z,99.90
2022-08-16T04:31:56.269Z,99.90
2022-08-16T04:34:27.033Z,99.90
2022-08-16T04:36:55.066Z,99.90
2022-08-16T04:39:24.269Z,99.90
2022-08-16T04:41:56.516Z,99.90
2022-08-16T04:44:52.403Z,99.90
2022-08-16T04:47:24.187Z,99.90
2022-08-16T04:49:52.488Z,99.90
2022-08-16T04:52:33.847Z,99.90
2022-08-16T04:55:06.283Z,99.90
2022-08-16T04:57:35.238Z,99.90
2022-08-16T05:00:32.077Z,99.90
2022-08-16T05:02:56.313Z,99.90
2022-08-16T05:05:25.929Z,99.90
2022-08-16T05:08:00.592Z,99.90
2022-08-16T05:10:29.625Z,99.90
2022-08-16T05:12:57.833Z,99.90
2022-08-16T05:15:25.633Z,99.90
2022-08-16T05:17:58.884Z,99.90
2022-08-16T05:20:35.130Z,99.90
2022-08-16T05:23:06.410Z,99.90
2022-08-16T05:25:40.986Z,99.90
2022-08-16T05:28:15.555Z,99.90
2022-08-16T05:30:43.205Z,99.90
2022-08-16T05:33:16.621Z,99.90
2022-08-16T05:35:55.127Z,99.90
2022-08-16T05:38:32.447Z,99.90
2022-08-16T05:41:06.396Z,99.90
2022-08-16T05:43:43.573Z,99.90
2022-08-16T05:46:29.951Z,99.90
2022-08-16T05:49:05.857Z,99.90
2022-08-16T05:51:39.031Z,99.90
2022-08-16T05:54:14.192Z,99.90
2022-08-16T05:56:43.026Z,99.90
2022-08-16T05:59:10.947Z,99.90
2022-08-16T06:01:39.168Z,99.90
2022-08-16T06:04:12.766Z,99.90
2022-08-16T06:06:43.476Z,99.90
2022-08-16T06:09:25.266Z,99.90
2022-08-16T06:11:52.767Z,99.90
2022-08-16T06:14:19.791Z,99.90
2022-08-16T06:16:50.531Z,99.90
2022-08-16T06:19:18.478Z,99.90
2022-08-16T06:21:54.950Z,99.90
2022-08-16T06:24:54.155Z,99.90
2022-08-16T06:27:09.355Z,99.90
2022-08-16T06:29:36.291Z,99.90
2022-08-16T06:32:04.205Z,99.90
2022-08-16T06:34:57.157Z,99.90
2022-08-16T06:37:18.609Z,99.90
2022-08-16T06:39:49.765Z,99.90
2022-08-16T06:42:18.297Z,99.90
2022-08-16T06:44:46.570Z,99.90
2022-08-16T06:47:17.221Z,99.90
2022-08-16T06:49:52.786Z,99.90
2022-08-16T06:52:58.538Z,99.90
2022-08-16T06:55:12.967Z,99.90
2022-08-16T06:57:41.402Z,99.90
2022-08-16T07:00:24.076Z,99.90
2022-08-16T07:02:53.673Z,99.90
2022-08-16T07:05:27.000Z,99.90
2022-08-16T07:08:06.534Z,99.90
2022-08-16T07:10:33.439Z,99.90
2022-08-16T07:13:03.859Z,99.90
2022-08-16T07:15:31.900Z,99.90
2022-08-16T07:18:00.787Z,99.90
2022-08-16T07:20:34.738Z,99.90
2022-08-16T07:23:02.788Z,99.90
2022-08-16T07:25:40.804Z,99.90
2022-08-16T07:28:12.021Z,99.90
2022-08-16T07:30:48.577Z,99.90
2022-08-16T07:33:21.401Z,99.90
2022-08-16T07:36:06.663Z,99.90
2022-08-16T07:38:34.436Z,99.90
2022-08-16T07:41:09.659Z,99.90
2022-08-16T07:43:40.304Z,99.90
2022-08-16T07:46:38.777Z,99.90
2022-08-16T07:49:02.589Z,99.90
2022-08-16T07:51:35.577Z,99.90
2022-08-16T07:54:09.420Z,99.90
2022-08-16T07:56:37.856Z,99.90
2022-08-16T07:59:05.955Z,99.90
2022-08-16T08:01:33.479Z,99.90
2022-08-16T08:04:02.965Z,99.90
2022-08-16T08:06:32.464Z,99.90
2022-08-16T08:09:00.501Z,99.90
2022-08-16T08:11:29.731Z,99.90
2022-08-16T08:14:03.919Z,99.60
2022-08-16T08:16:33.549Z,99.90
2022-08-16T08:19:03.202Z,99.90
2022-08-16T08:21:58.829Z,99.90
2022-08-16T08:24:19.883Z,99.60
2022-08-16T08:26:49.839Z,99.90
2022-08-16T08:29:22.916Z,99.90
2022-08-16T08:31:53.249Z,99.60
2022-08-16T08:34:22.114Z,98.90
2022-08-16T08:36:50.199Z,98.80
2022-08-16T08:39:22.490Z,98.20
2022-08-16T08:41:51.215Z,97.20
2022-08-16T08:44:29.060Z,97.20
2022-08-16T08:47:11.091Z,97.00
2022-08-16T08:49:50.331Z,95.90
2022-08-16T08:52:34.721Z,96.30
2022-08-16T08:55:10.425Z,96.60
2022-08-16T08:57:41.086Z,95.80
2022-08-16T09:00:13.749Z,95.90
2022-08-16T09:02:44.686Z,96.90
2022-08-16T09:05:16.710Z,96.50
2022-08-16T09:08:00.678Z,95.20
2022-08-16T09:10:29.877Z,94.20
2022-08-16T09:12:57.771Z,93.10
2022-08-16T09:15:26.456Z,93.20
2022-08-16T09:18:02.083Z,91.10
2022-08-16T09:20:58.566Z,90.30
2022-08-16T09:23:29.246Z,91.40
2022-08-16T09:25:56.212Z,91.30
2022-08-16T09:29:13.551Z,90.50
2022-08-16T09:31:10.942Z,88.10
2022-08-16T09:33:39.391Z,85.70
2022-08-16T09:36:11.839Z,82.30
2022-08-16T09:38:59.821Z,82.10
2022-08-16T09:41:28.150Z,81.20
2022-08-16T09:43:59.762Z,79.30
2022-08-16T09:46:48.369Z,77.40
2022-08-16T09:49:16.796Z,79.30
2022-08-16T09:51:48.275Z,78.50
2022-08-16T09:54:20.953Z,76.40
2022-08-16T09:56:52.137Z,69.60
2022-08-16T09:59:22.497Z,69.40
2022-08-16T10:01:49.882Z,65.70
2022-08-16T10:04:31.316Z,66.60
2022-08-16T10:07:15.575Z,65.60
2022-08-16T10:09:54.388Z,60.60
2022-08-16T10:12:43.341Z,62.70
2022-08-16T10:15:18.434Z,64.10
2022-08-16T10:18:01.370Z,66.50
2022-08-16T10:20:36.316Z,66.80
2022-08-16T10:23:07.842Z,64.80
2022-08-16T10:27:20.421Z,62.70
2022-08-16T10:28:32.438Z,58.90
2022-08-16T10:31:08.214Z,58.20
2022-08-16T10:33:40.344Z,56.10
2022-08-16T10:36:08.877Z,53.60
2022-08-16T10:38:38.755Z,54.60
2022-08-16T10:41:10.914Z,55.20
2022-08-16T10:43:43.529Z,55.40
2022-08-16T10:46:39.358Z,55.70
2022-08-16T10:49:01.020Z,53.70
2022-08-16T10:51:33.620Z,51.20
2022-08-16T10:54:04.982Z,52.60
2022-08-16T10:56:56.224Z,55.70
2022-08-16T10:59:44.992Z,60.10
2022-08-16T11:03:37.432Z,61.30
2022-08-16T11:05:10.701Z,59.40
2022-08-16T11:07:43.599Z,60.40
2022-08-16T11:13:57.395Z,57.70
2022-08-16T11:16:01.204Z,57.00
2022-08-16T11:19:03.205Z,55.00
2022-08-16T11:21:28.989Z,53.50
2022-08-16T11:23:59.568Z,53.80
2022-08-16T11:26:27.850Z,53.40
2022-08-16T11:29:13.144Z,51.40
2022-08-16T11:31:45.443Z,50.80
2022-08-16T11:34:21.094Z,49.80
2022-08-16T11:36:53.667Z,46.50
2022-08-16T11:39:28.219Z,47.70
2022-08-16T11:41:55.621Z,47.90
2022-08-16T11:44:52.203Z,49.20
2022-08-16T11:47:09.766Z,49.00
2022-08-16T11:49:36.658Z,48.50
2022-08-16T11:52:03.718Z,47.10
2022-08-16T11:54:36.086Z,47.30
2022-08-16T11:57:04.035Z,46.40
2022-08-16T11:59:39.775Z,46.00
2022-08-16T12:02:32.041Z,47.30
2022-08-16T12:04:56.455Z,51.30
2022-08-16T12:07:24.214Z,51.00
2022-08-16T12:09:53.111Z,49.70
2022-08-16T12:12:23.569Z,49.10
2022-08-16T12:14:57.326Z,47.40
2022-08-16T12:17:28.047Z,47.00
2022-08-16T12:19:59.032Z,45.10
2022-08-16T12:22:26.036Z,45.70
2022-08-16T12:24:53.446Z,48.70
2022-08-16T12:27:25.823Z,49.90
2022-08-16T12:29:53.580Z,48.80
2022-08-16T12:32:37.693Z,48.20
2022-08-16T12:35:12.136Z,49.00
2022-08-16T12:37:39.805Z,47.10
2022-08-16T12:40:23.679Z,45.90
2022-08-16T12:42:54.633Z,46.10
2022-08-16T12:45:27.397Z,46.50
2022-08-16T12:48:33.702Z,47.20
2022-08-16T12:51:02.090Z,46.00
2022-08-16T12:53:31.762Z,45.70
2022-08-16T12:55:59.641Z,45.30
2022-08-16T12:58:49.228Z,44.80
2022-08-16T13:01:14.905Z,45.70
2022-08-16T13:03:42.159Z,46.20
2022-08-16T13:06:09.604Z,45.30
2022-08-16T13:08:39.975Z,45.50
2022-08-16T13:11:07.662Z,45.00
2022-08-16T13:13:35.807Z,44.00
2022-08-16T13:16:15.544Z,43.00
2022-08-16T13:18:52.406Z,42.80
2022-08-16T13:21:23.725Z,45.80
2022-08-16T13:23:55.251Z,46.20
2022-08-16T13:26:23.922Z,45.60
2022-08-16T13:28:51.077Z,44.60
2022-08-16T13:31:17.956Z,44.20
2022-08-16T13:33:45.473Z,43.20
2022-08-16T13:39:01.135Z,42.50
2022-08-16T13:41:30.098Z,44.90
2022-08-16T13:44:00.161Z,46.60
2022-08-16T13:46:28.893Z,48.00
2022-08-16T13:48:57.517Z,47.00
2022-08-16T13:51:25.128Z,46.10
2022-08-16T13:53:59.303Z,44.70
2022-08-16T13:56:35.983Z,45.60
2022-08-16T13:59:14.031Z,47.10
2022-08-16T14:01:55.987Z,47.70
2022-08-16T14:04:26.635Z,47.50
2022-08-16T14:06:55.283Z,46.50
2022-08-16T14:09:23.606Z,46.90
2022-08-16T14:11:53.329Z,45.10
2022-08-16T14:14:28.291Z,44.10
2022-08-16T14:16:57.565Z,43.80
2022-08-16T14:19:24.511Z,44.70
2022-08-16T14:22:14.709Z,46.10
2022-08-16T14:24:45.248Z,46.30
2022-08-16T14:27:18.408Z,45.30
2022-08-16T14:29:49.188Z,45.80
2022-08-16T14:32:32.742Z,45.30
2022-08-16T14:35:03.289Z,44.40
2022-08-16T14:37:32.127Z,43.30
2022-08-16T14:39:59.955Z,42.80
2022-08-16T14:42:27.516Z,42.40
2022-08-16T14:44:54.530Z,43.60
2022-08-16T14:47:22.772Z,44.00
2022-08-16T14:49:52.240Z,45.10
2022-08-16T14:52:44.413Z,46.50
2022-08-16T14:55:11.773Z,47.60
2022-08-16T14:57:39.544Z,48.90
2022-08-16T15:00:12.115Z,49.20
2022-08-16T15:02:41.160Z,49.10
2022-08-16T15:05:09.870Z,49.30
2022-08-16T15:07:40.255Z,49.40
2022-08-16T15:10:21.620Z,50.40
2022-08-16T15:12:56.175Z,50.10
2022-08-16T15:15:25.766Z,50.80
2022-08-16T15:17:56.787Z,51.00
2022-08-16T15:20:27.066Z,50.90
2022-08-16T15:22:58.243Z,50.10
2022-08-16T15:25:30.206Z,50.40
2022-08-16T15:27:58.849Z,50.00
2022-08-16T15:30:58.061Z,49.90
2022-08-16T15:33:18.284Z,49.90
2022-08-16T15:35:50.677Z,49.40
2022-08-16T15:38:56.865Z,50.20
2022-08-16T15:41:06.159Z,51.30
2022-08-16T15:43:39.877Z,51.50
2022-08-16T15:46:35.078Z,51.60
2022-08-16T15:49:12.884Z,51.30
2022-08-16T15:51:43.556Z,51.40
2022-08-16T15:54:21.510Z,50.70
2022-08-16T15:57:01.557Z,51.80
2022-08-16T15:59:48.258Z,51.00
2022-08-16T16:02:27.274Z,50.90
2022-08-16T16:04:55.150Z,51.30
2022-08-16T16:07:22.530Z,51.30
2022-08-16T16:09:53.069Z,51.10
2022-08-16T16:12:50.227Z,51.20
2022-08-16T16:15:07.670Z,51.40
2022-08-16T16:17:35.651Z,51.50
2022-08-16T16:20:04.525Z,51.60
2022-08-16T16:22:31.794Z,51.50
2022-08-16T16:24:58.859Z,51.50
2022-08-16T16:27:25.824Z,51.60
2022-08-16T16:30:01.700Z,51.50
2022-08-16T16:32:34.718Z,51.90
2022-08-16T16:35:03.009Z,52.50
2022-08-16T16:37:31.259Z,51.70
2022-08-16T16:39:59.668Z,51.70
2022-08-16T16:42:30.344Z,52.10
2022-08-16T16:45:01.593Z,52.20
2022-08-16T16:47:30.787Z,52.60
2022-08-16T16:50:10.167Z,52.20
2022-08-16T16:52:43.881Z,52.00
2022-08-16T16:55:13.539Z,51.80
2022-08-16T16:58:01.081Z,51.70
2022-08-16T17:00:38.181Z,51.60
2022-08-16T17:03:13.898Z,51.70
2022-08-16T17:05:58.691Z,52.50
2022-08-16T17:08:31.114Z,52.70
2022-08-16T17:10:58.292Z,53.30
2022-08-16T17:13:27.776Z,53.10
2022-08-16T17:15:55.380Z,53.00
2022-08-16T17:19:17.252Z,52.70
2022-08-16T17:21:10.820Z,53.00
2022-08-16T17:23:58.608Z,53.50
2022-08-16T17:26:29.944Z,53.70
2022-08-16T17:29:10.792Z,53.90
2022-08-16T17:31:40.806Z,53.60
2022-08-16T17:34:29.076Z,54.30
2022-08-16T17:37:00.707Z,54.40
2022-08-16T17:39:35.493Z,55.10
2022-08-16T17:42:25.320Z,54.20
2022-08-16T17:44:52.750Z,54.20
2022-08-16T17:47:21.909Z,54.40
2022-08-16T17:49:48.947Z,54.70
2022-08-16T17:52:16.151Z,54.90
2022-08-16T17:54:43.365Z,54.80
2022-08-16T17:57:10.380Z,55.00
2022-08-16T17:59:41.262Z,55.10
2022-08-16T18:02:41.096Z,55.10
2022-08-16T18:04:56.761Z,55.50
2022-08-16T18:07:23.851Z,55.90
2022-08-16T18:09:52.328Z,56.40
2022-08-16T18:12:51.159Z,57.40
2022-08-16T18:15:14.104Z,58.10
2022-08-16T18:17:42.047Z,58.80
2022-08-16T18:20:30.448Z,59.40
2022-08-16T18:23:07.034Z,59.60
2022-08-16T18:25:35.236Z,59.60
2022-08-16T18:28:03.028Z,59.80
2022-08-16T18:30:29.983Z,60.20
2022-08-16T18:32:56.875Z,60.70
2022-08-16T18:35:24.008Z,61.00
2022-08-16T18:37:50.986Z,61.90
2022-08-16T18:40:18.426Z,61.70
2022-08-16T18:43:07.792Z,62.00
2022-08-16T18:45:37.033Z,62.50
2022-08-16T18:48:06.122Z,62.70
2022-08-16T18:51:04.885Z,63.20
2022-08-16T18:53:22.114Z,63.40
2022-08-16T18:55:52.253Z,63.60
2022-08-16T18:58:19.134Z,64.00
2022-08-16T19:00:56.718Z,63.80
2022-08-16T19:03:32.280Z,64.40
2022-08-16T19:06:11.139Z,64.30
2022-08-16T19:08:41.039Z,64.80
2022-08-16T19:11:10.061Z,65.10
2022-08-16T19:13:37.022Z,65.30
2022-08-16T19:16:04.603Z,65.60
2022-08-16T19:18:36.542Z,66.50
2022-08-16T19:21:05.401Z,66.30
2022-08-16T19:23:35.732Z,66.70
2022-08-16T19:26:06.271Z,67.30
2022-08-16T19:28:50.994Z,67.70
2022-08-16T19:31:32.176Z,68.10
2022-08-16T19:34:00.353Z,68.60
2022-08-16T19:36:35.324Z,68.80
2022-08-16T19:39:06.789Z,69.10
2022-08-16T19:41:41.486Z,70.00
2022-08-16T19:44:08.718Z,70.70
2022-08-16T19:46:37.803Z,71.30
2022-08-16T19:49:05.412Z,71.90
2022-08-16T19:51:32.491Z,72.30
2022-08-16T19:53:59.536Z,72.60
2022-08-16T19:56:26.909Z,72.70
2022-08-16T20:01:43.725Z,73.30
2022-08-16T20:04:12.790Z,73.70
2022-08-16T20:06:40.791Z,74.20
2022-08-16T20:09:07.885Z,74.70
2022-08-16T20:11:36.213Z,75.10
2022-08-16T20:14:03.164Z,75.40
2022-08-16T20:16:30.373Z,75.90
2022-08-16T20:18:57.234Z,76.20
2022-08-16T20:21:24.369Z,76.40
2022-08-16T20:23:51.631Z,76.90
2022-08-16T20:26:18.997Z,77.50
2022-08-16T20:28:53.675Z,78.40
2022-08-16T20:31:22.483Z,79.10
2022-08-16T20:33:50.241Z,79.60
2022-08-16T20:36:17.191Z,80.20
2022-08-16T20:38:47.189Z,80.80
2022-08-16T20:44:00.045Z,81.70
2022-08-16T20:46:27.386Z,82.70
2022-08-16T20:48:54.289Z,82.40
2022-08-16T20:51:21.174Z,83.30
2022-08-16T20:53:48.075Z,83.80
2022-08-16T20:56:15.149Z,84.60
2022-08-16T20:58:42.111Z,85.00
2022-08-16T21:01:09.130Z,85.70
2022-08-16T21:03:37.796Z,86.30
2022-08-16T21:06:05.713Z,86.70
2022-08-16T21:08:52.272Z,87.10
2022-08-16T21:11:21.763Z,87.70
2022-08-16T21:13:49.510Z,87.90
2022-08-16T21:16:17.257Z,88.60
2022-08-16T21:18:44.247Z,89.50
2022-08-16T21:21:12.239Z,90.20
2022-08-16T21:23:39.709Z,90.80
2022-08-16T21:26:10.736Z,91.30
2022-08-16T21:28:42.754Z,92.00
2022-08-16T21:31:11.671Z,92.20
2022-08-16T21:33:38.901Z,92.30
2022-08-16T21:36:06.294Z,92.40
2022-08-16T21:38:33.242Z,92.80
2022-08-16T21:41:01.632Z,93.10
2022-08-16T21:43:32.198Z,93.50
2022-08-16T21:46:03.648Z,93.90
2022-08-16T21:48:35.078Z,94.20
2022-08-16T21:51:07.609Z,94.20
2022-08-16T21:53:35.309Z,94.50
2022-08-16T21:56:03.851Z,94.80
2022-08-16T21:58:31.733Z,94.90
2022-08-16T22:00:59.370Z,94.90
2022-08-16T22:03:26.277Z,95.20
2022-08-16T22:06:11.883Z,95.20
2022-08-16T22:08:49.256Z,95.50
2022-08-16T22:11:20.660Z,95.80
2022-08-16T22:13:51.207Z,96.20
2022-08-16T22:16:25.554Z,96.40
2022-08-16T22:18:52.821Z,96.40
2022-08-16T22:21:20.346Z,96.30
2022-08-16T22:23:57.168Z,96.20
2022-08-16T22:26:30.682Z,96.20
2022-08-16T22:29:04.802Z,96.20
2022-08-16T22:31:32.320Z,96.20
2022-08-16T22:34:01.805Z,96.20
2022-08-16T22:36:29.896Z,96.20
2022-08-16T22:38:58.730Z,96.20
2022-08-16T22:41:27.862Z,96.40
2022-08-16T22:43:55.421Z,96.70
2022-08-16T22:46:22.510Z,96.90
2022-08-16T22:48:50.788Z,96.80
2022-08-16T22:51:19.428Z,97.00
2022-08-16T22:53:46.584Z,97.20
2022-08-16T22:56:13.646Z,97.30
2022-08-16T22:58:40.542Z,97.50
2022-08-16T23:01:09.824Z,97.60
2022-08-16T23:03:38.530Z,97.80
2022-08-16T23:06:06.369Z,98.00
2022-08-16T23:08:40.559Z,98.20
2022-08-16T23:11:14.005Z,98.30
2022-08-16T23:13:49.999Z,98.50
2022-08-16T23:16:32.624Z,98.60
2022-08-16T23:19:09.111Z,98.70
2022-08-16T23:21:38.002Z,98.60
2022-08-16T23:24:06.645Z,98.60
2022-08-16T23:26:44.636Z,98.60
2022-08-16T23:29:24.477Z,98.70
2022-08-16T23:31:59.111Z,98.80
2022-08-16T23:34:27.985Z,99.00
2022-08-16T23:36:55.229Z,99.00
2022-08-16T23:39:22.411Z,99.00
2022-08-16T23:41:49.506Z,99.00
2022-08-16T23:44:56.477Z,99.10
2022-08-16T23:47:06.105Z,99.10
2022-08-16T23:50:01.989Z,99.20
2022-08-16T23:52:45.242Z,99.00
2022-08-16T23:55:08.639Z,98.90
2022-08-16T23:57:35.583Z,98.80
